Time;durP1;ratioP1;P1;durP2;ratioP2;P2;SDS_P1;SDS_P2;PMS_P1;PMS_P2;Temp;Humidity;BMP_temperature;BMP_pressure;BME280_temperature;BME280_humidity;BME280_pressure;Samples;Min_cycle;Max_cycle;Signal;HPM_P1;HPM_P2
2023/02/09 00:00:08;;;;;;;;;87.00;58.25;;;;;0.89;100.00;102926.22;5002283;28;45449;-87
2023/02/09 00:02:34;;;;;;;;;79.50;58.00;;;;;0.85;100.00;102924.28;5019374;28;45366;-87
2023/02/09 00:04:59;;;;;;;;;90.25;65.50;;;;;0.82;100.00;102919.06;5002415;28;48025;-87
2023/02/09 00:07:25;;;;;;;;;93.00;66.50;;;;;0.79;100.00;102918.03;5018118;28;62445;-87
2023/02/09 00:09:50;;;;;;;;;89.25;62.00;;;;;0.76;100.00;102916.19;5018800;28;45596;-87
2023/02/09 00:15:00;;;;;;;;;79.50;61.75;;;;;0.73;100.00;102904.13;5036481;28;45334;-87
2023/02/09 00:17:25;;;;;;;;;79.50;58.00;;;;;0.71;100.00;102898.03;5001910;28;53378;-86
2023/02/09 00:19:53;;;;;;;;;79.50;55.50;;;;;0.72;100.00;102907.47;5018903;28;45265;-87
2023/02/09 00:22:18;;;;;;;;;85.25;64.25;;;;;0.71;100.00;102912.56;5002072;28;45256;-87
2023/02/09 00:24:44;;;;;;;;;90.50;67.00;;;;;0.70;100.00;102914.22;5018570;28;46152;-86
2023/02/09 00:27:09;;;;;;;;;81.00;59.00;;;;;0.69;100.00;102914.16;5018007;28;62247;-86
2023/02/09 00:29:35;;;;;;;;;84.50;64.50;;;;;0.66;100.00;102906.31;5001816;28;49787;-87
2023/02/09 00:32:00;;;;;;;;;89.00;65.50;;;;;0.62;100.00;102910.44;5018052;28;45375;-86
2023/02/09 00:34:25;;;;;;;;;81.50;61.50;;;;;0.60;100.00;102904.34;5001559;28;51913;-87
2023/02/09 00:36:51;;;;;;;;;87.75;61.75;;;;;0.56;100.00;102905.03;5018713;28;54101;-86
2023/02/09 00:39:16;;;;;;;;;78.00;57.50;;;;;0.53;100.00;102905.72;5002101;28;50404;-87
2023/02/09 00:44:25;;;;;;;;;83.00;60.50;;;;;0.53;100.00;102908.31;5021104;28;45426;-86
2023/02/09 00:46:51;;;;;;;;;92.00;66.75;;;;;0.52;100.00;102909.13;5018085;28;62556;-87
2023/02/09 00:49:16;;;;;;;;;86.50;66.75;;;;;0.49;100.00;102901.28;5035822;28;45566;-86
2023/02/09 00:51:44;;;;;;;;;86.67;63.33;;;;;0.50;100.00;102912.41;5001108;28;63302;-86
2023/02/09 00:54:09;;;;;;;;;90.25;66.00;;;;;0.48;100.00;102919.13;5018225;28;46077;-87
2023/02/09 00:56:34;;;;;;;;;90.50;68.25;;;;;0.45;100.00;102917.31;5017611;28;49667;-87
2023/02/09 00:59:00;;;;;;;;;94.67;66.67;;;;;0.43;100.00;102911.25;5035431;28;57957;-87
2023/02/09 01:01:25;;;;;;;;;96.75;69.50;;;;;0.41;100.00;102912.88;5001267;28;50196;-86
2023/02/09 01:03:50;;;;;;;;;96.75;70.00;;;;;0.40;100.00;102916.22;5034868;28;56739;-86
2023/02/09 01:06:16;;;;;;;;;95.00;66.75;;;;;0.37;100.00;102908.38;5017381;28;62782;-87
2023/02/09 01:08:41;;;;;;;;;93.00;67.50;;;;;0.35;100.00;102908.31;5018033;28;45464;-87
2023/02/09 01:11:09;;;;;;;;;99.25;69.25;;;;;0.36;100.00;102911.75;5000781;28;65247;-86
2023/02/09 01:13:34;;;;;;;;;92.50;66.50;;;;;0.33;100.00;102906.47;5017757;28;45629;-86
2023/02/09 01:16:04;;;;;;;;;85.75;66.00;;;;;0.29;100.00;102899.47;5017928;28;45363;-86
2023/02/09 01:18:30;;;;;;;;;87.00;63.50;;;;;0.26;100.00;102889.06;5001310;28;45342;-86
2023/02/09 01:20:55;;;;;;;;;92.25;65.75;;;;;0.24;100.00;102893.22;5018100;28;45308;-86
2023/02/09 01:23:20;;;;;;;;;92.75;66.00;;;;;0.24;100.00;102895.78;5034925;28;64763;-86
2023/02/09 01:25:46;;;;;;;;;94.50;69.50;;;;;0.22;100.00;102897.41;5034914;28;54934;-87
2023/02/09 01:28:11;;;;;;;;;90.25;65.00;;;;;0.23;100.00;102906.84;5035598;28;45332;-86
2023/02/09 01:30:36;;;;;;;;;94.00;69.25;;;;;0.23;100.00;102910.28;5017651;28;45311;-86
2023/02/09 01:33:02;;;;;;;;;95.25;66.00;;;;;0.24;100.00;102916.28;5034627;28;55846;-87
2023/02/09 01:35:27;;;;;;;;;90.50;66.00;;;;;0.22;100.00;102908.50;5017566;28;45701;-87
2023/02/09 01:37:53;;;;;;;;;95.25;67.00;;;;;0.21;100.00;102906.78;5000702;28;55584;-86
2023/02/09 01:40:18;;;;;;;;;93.25;66.25;;;;;0.20;100.00;102910.13;5017767;28;45371;-87
2023/02/09 01:42:43;;;;;;;;;99.00;66.00;;;;;0.16;100.00;102914.22;5000718;28;52801;-86
2023/02/09 01:45:35;;;;;;;;;91.50;67.00;;;;;0.15;100.00;102903.94;5020774;28;45241;-86
2023/02/09 01:48:02;;;;;;;;;95.50;71.00;;;;;0.15;100.00;102906.47;5029087;28;45545;-87
2023/02/09 01:50:31;;;;;;;;;93.00;67.50;;;;;0.14;100.00;102904.72;5021246;28;45385;-87
2023/02/09 01:52:56;;;;;;;;;95.25;66.25;;;;;0.12;100.00;102907.19;5020792;28;45405;-87
2023/02/09 01:55:25;;;;;;;;;98.00;64.50;;;;;0.13;100.00;102913.19;5004237;28;46021;-87
2023/02/09 01:57:54;;;;;;;;;96.00;66.75;;;;;0.12;100.00;102909.75;5021056;28;45316;-87
2023/02/09 02:00:21;;;;;;;;;91.75;63.00;;;;;0.10;100.00;102908.81;5021017;28;45506;-87
2023/02/09 02:02:51;;;;;;;;;88.25;63.50;;;;;0.08;100.00;102909.53;5020535;28;47168;-86
2023/02/09 02:05:17;;;;;;;;;86.00;65.00;;;;;0.10;100.00;102905.38;5020838;28;45330;-87
2023/02/09 02:08:10;;;;;;;;;84.00;62.00;;;;;0.15;100.00;102924.41;5004277;28;45331;-86
2023/02/09 02:10:36;;;;;;;;;82.50;58.00;;;;;0.11;100.00;102919.91;5038445;28;45353;-87
2023/02/09 02:13:02;;;;;;;;;97.00;65.00;;;;;0.10;100.00;102926.72;5003657;28;47220;-86
2023/02/09 02:15:40;;;;;;;;;86.00;63.75;;;;;0.07;100.00;102921.44;5020850;28;45300;-87
2023/02/09 02:18:11;;;;;;;;;87.25;63.75;;;;;0.09;100.00;102926.66;5020585;28;45308;-87
2023/02/09 02:20:55;;;;;;;;;89.25;60.25;;;;;0.10;100.00;102926.72;5020770;28;45411;-87
2023/02/09 02:23:57;;;;;;;;;84.00;60.25;;;;;0.10;100.00;102934.41;5038108;28;45547;-86
2023/02/09 02:26:44;;;;;;;;;79.00;57.25;;;;;0.09;100.00;102932.63;5037948;28;45391;-86
2023/02/09 02:29:47;;;;;;;;;82.25;62.50;;;;;0.06;100.00;102927.41;5020428;28;45308;-87
2023/02/09 02:32:23;;;;;;;;;83.50;61.00;;;;;0.03;100.00;102937.47;5038088;28;45410;-87
2023/02/09 02:35:00;;;;;;;;;82.75;59.50;;;;;-0.02;100.00;102927.03;5003756;28;47182;-87
2023/02/09 02:37:55;;;;;;;;;79.25;59.50;;;;;-0.04;100.00;102936.31;5003695;28;45855;-86
2023/02/09 02:40:32;;;;;;;;;76.00;57.50;;;;;-0.03;100.00;102932.94;5003847;28;45911;-86
2023/02/09 02:43:22;;;;;;;;;77.75;57.25;;;;;-0.03;100.00;102932.06;5038224;28;45523;-87
2023/02/09 02:45:54;;;;;;;;;78.50;58.00;;;;;-0.04;100.00;102930.28;5037412;28;45529;-87
2023/02/09 02:48:35;;;;;;;;;77.00;57.50;;;;;-0.06;100.00;102926.78;5020307;28;45367;-87
2023/02/09 02:51:06;;;;;;;;;84.00;58.50;;;;;-0.07;100.00;102922.47;5000737;28;45341;-87
2023/02/09 02:53:34;;;;;;;;;74.25;56.75;;;;;-0.10;100.00;102923.19;5017997;28;45323;-87
2023/02/09 02:56:05;;;;;;;;;78.50;57.25;;;;;-0.09;100.00;102918.97;5013506;28;46390;-87
2023/02/09 02:58:32;;;;;;;;;80.75;57.75;;;;;-0.14;100.00;102913.59;5019678;28;45415;-86
2023/02/09 03:00:59;;;;;;;;;80.25;59.50;;;;;-0.13;100.00;102924.69;5002241;28;63318;-86
2023/02/09 03:03:30;;;;;;;;;72.00;52.25;;;;;-0.16;100.00;102922.88;5003350;28;45402;-86
2023/02/09 03:05:56;;;;;;;;;78.00;57.25;;;;;-0.17;100.00;102917.69;5019674;28;45472;-87
2023/02/09 03:08:21;;;;;;;;;77.50;54.00;;;;;-0.18;100.00;102916.81;5003300;28;45773;-87
2023/02/09 03:10:47;;;;;;;;;86.50;56.50;;;;;-0.18;100.00;102921.06;5003024;28;50231;-87
2023/02/09 03:13:17;;;;;;;;;78.25;56.50;;;;;-0.19;100.00;102930.41;5003683;28;45469;-87
2023/02/09 03:15:46;;;;;;;;;81.75;58.00;;;;;-0.20;100.00;102926.09;5019540;28;45351;-87
2023/02/09 03:18:26;;;;;;;;;73.50;57.25;;;;;-0.21;100.00;102917.50;5019706;28;45792;-87
2023/02/09 03:21:01;;;;;;;;;73.00;54.00;;;;;-0.22;100.00;102920.03;5019784;28;45326;-87
2023/02/09 03:23:37;;;;;;;;;71.50;54.50;;;;;-0.22;100.00;102922.59;5002890;28;45254;-86
2023/02/09 03:26:08;;;;;;;;;73.75;56.00;;;;;-0.25;100.00;102919.84;5019452;28;46456;-86
2023/02/09 03:28:35;;;;;;;;;75.50;55.75;;;;;-0.27;100.00;102917.22;5002568;28;46002;-86
2023/02/09 03:31:02;;;;;;;;;66.25;49.50;;;;;-0.31;100.00;102920.44;5003111;28;45435;-86
2023/02/09 03:33:29;;;;;;;;;70.50;54.00;;;;;-0.29;100.00;102920.50;5019440;28;45539;-87
2023/02/09 03:35:56;;;;;;;;;73.50;57.25;;;;;-0.30;100.00;102911.06;5019338;28;48073;-86
2023/02/09 03:38:23;;;;;;;;;71.75;57.00;;;;;-0.33;100.00;102910.94;5019178;28;45336;-86
2023/02/09 03:40:49;;;;;;;;;76.00;54.25;;;;;-0.38;100.00;102908.13;5002655;28;45371;-87
2023/02/09 03:43:14;;;;;;;;;61.25;45.50;;;;;-0.41;100.00;102901.19;5002433;28;45435;-86
2023/02/09 03:45:40;;;;;;;;;73.50;52.25;;;;;-0.40;100.00;102902.91;5002186;28;48021;-86
2023/02/09 03:48:05;;;;;;;;;70.50;57.00;;;;;-0.40;100.00;102897.78;5018635;28;62026;-87
2023/02/09 03:50:33;;;;;;;;;78.25;52.50;;;;;-0.42;100.00;102901.97;5036736;28;45446;-87
2023/02/09 03:52:59;;;;;;;;;78.00;55.75;;;;;-0.42;100.00;102908.78;5019069;28;45322;-86
2023/02/09 03:55:24;;;;;;;;;77.00;48.25;;;;;-0.47;100.00;102911.06;5018863;28;46145;-86
2023/02/09 03:57:49;;;;;;;;;78.25;54.25;;;;;-0.48;100.00;102909.34;5001929;28;48027;-86
2023/02/09 04:00:15;;;;;;;;;72.50;50.00;;;;;-0.50;100.00;102915.16;5036703;28;45709;-87
2023/02/09 04:02:41;;;;;;;;;71.25;52.00;;;;;-0.51;100.00;102919.41;5002312;28;45359;-86
2023/02/09 04:05:10;;;;;;;;;60.75;42.25;;;;;-0.55;100.00;102917.50;5002041;28;48302;-86
2023/02/09 04:07:36;;;;;;;;;61.75;44.75;;;;;-0.57;100.00;102908.84;5017922;28;45924;-87
2023/02/09 04:10:02;;;;;;;;;66.25;48.50;;;;;-0.59;100.00;102902.78;5001515;28;61465;-86
2023/02/09 04:12:27;;;;;;;;;68.25;53.50;;;;;-0.62;100.00;102894.94;5018289;28;45317;-86
2023/02/09 04:14:52;;;;;;;;;76.75;51.00;;;;;-0.66;100.00;102891.34;5036559;28;46349;-86
2023/02/09 04:17:17;;;;;;;;;69.75;50.50;;;;;-0.67;100.00;102888.72;5036323;28;45394;-86
2023/02/09 04:19:43;;;;;;;;;80.75;59.00;;;;;-0.67;100.00;102883.59;5018198;28;55684;-86
2023/02/09 04:22:08;;;;;;;;;70.25;52.00;;;;;-0.65;100.00;102890.56;5002222;28;45322;-86
2023/02/09 04:24:34;;;;;;;;;70.25;50.75;;;;;-0.64;100.00;102891.44;5035538;28;62887;-86
2023/02/09 04:26:59;;;;;;;;;58.25;48.00;;;;;-0.62;100.00;102895.81;5017795;28;52484;-86
2023/02/09 04:29:25;;;;;;;;;53.25;43.50;;;;;-0.59;100.00;102885.75;5001858;28;45418;-86
2023/02/09 04:31:50;;;;;;;;;67.00;49.50;;;;;-0.62;100.00;102877.91;5036314;28;45627;-86
2023/02/09 04:34:16;;;;;;;;;67.25;48.25;;;;;-0.64;100.00;102876.97;5018255;28;45344;-86
2023/02/09 04:36:41;;;;;;;;;73.50;49.00;;;;;-0.65;100.00;102877.78;5001828;28;45658;-86
2023/02/09 04:39:06;;;;;;;;;63.00;43.75;;;;;-0.63;100.00;102888.97;5002006;28;45427;-86
2023/02/09 04:41:32;;;;;;;;;57.25;42.25;;;;;-0.60;100.00;102890.78;5001347;28;45399;-86
2023/02/09 04:43:57;;;;;;;;;60.75;43.75;;;;;-0.62;100.00;102865.13;5017986;28;52217;-86
2023/02/09 04:46:22;;;;;;;;;66.75;48.75;;;;;-0.63;100.00;102858.25;5000610;28;67435;-86
2023/02/09 04:48:48;;;;;;;;;71.25;54.50;;;;;-0.62;100.00;102856.56;5017419;28;61111;-86
2023/02/09 04:51:13;;;;;;;;;66.25;51.50;;;;;-0.55;100.00;102860.34;5018234;28;45406;-86
2023/02/09 04:53:39;;;;;;;;;61.50;48.50;;;;;-0.49;100.00;102876.84;5035401;28;46753;-86
2023/02/09 04:56:04;;;;;;;;;60.00;41.50;;;;;-0.41;100.00;102898.63;5035230;28;45264;-86
2023/02/09 05:01:18;;;;;;;;;68.00;48.25;;;;;-0.26;100.00;102919.00;5020664;28;45336;-86
2023/02/09 05:03:43;;;;;;;;;72.75;54.75;;;;;-0.24;100.00;102924.19;5017755;28;47004;-85
2023/02/09 05:06:09;;;;;;;;;67.25;51.00;;;;;-0.24;100.00;102921.63;5017745;28;45443;-86
2023/02/09 05:08:34;;;;;;;;;68.00;51.00;;;;;-0.24;100.00;102935.31;5017794;28;45371;-85
2023/02/09 05:11:00;;;;;;;;;71.25;56.50;;;;;-0.24;100.00;102937.00;5001124;28;45311;-86
2023/02/09 05:13:26;;;;;;;;;70.00;54.25;;;;;-0.26;100.00;102938.56;5000290;28;67466;-86
2023/02/09 05:15:52;;;;;;;;;66.75;51.50;;;;;-0.25;100.00;102932.66;5017562;28;46746;-86
2023/02/09 05:18:17;;;;;;;;;64.75;48.00;;;;;-0.27;100.00;102947.06;5019923;28;45421;-85
2023/02/09 05:20:43;;;;;;;;;72.75;54.00;;;;;-0.29;100.00;102949.53;5020884;28;49098;-85
2023/02/09 05:23:09;;;;;;;;;78.50;54.75;;;;;-0.33;100.00;102939.06;5020543;28;65314;-86
2023/02/09 05:25:35;;;;;;;;;72.75;51.50;;;;;-0.34;100.00;102927.06;5003140;28;45811;-86
2023/02/09 05:28:00;;;;;;;;;71.75;51.50;;;;;-0.38;100.00;102923.47;5021287;28;45347;-86
2023/02/09 05:30:26;;;;;;;;;68.75;52.00;;;;;-0.46;100.00;102933.31;5021388;28;45411;-87
2023/02/09 05:32:52;;;;;;;;;70.50;49.50;;;;;-0.46;100.00;102927.31;5021482;28;45703;-87
2023/02/09 05:35:18;;;;;;;;;73.50;50.75;;;;;-0.49;100.00;102922.91;5004720;28;46025;-87
2023/02/09 05:37:43;;;;;;;;;69.50;52.50;;;;;-0.49;100.00;102927.16;5021317;28;45335;-86
2023/02/09 05:40:09;;;;;;;;;77.50;56.00;;;;;-0.52;100.00;102932.09;5038860;28;45483;-86
2023/02/09 05:42:34;;;;;;;;;65.25;49.00;;;;;-0.54;100.00;102932.03;5004493;28;47198;-86
2023/02/09 05:45:00;;;;;;;;;51.25;38.50;;;;;-0.57;100.00;102942.13;5004265;28;53836;-86
2023/02/09 05:47:25;;;;;;;;;72.75;51.75;;;;;-0.63;100.00;102935.00;5021259;28;45430;-86
2023/02/09 05:49:51;;;;;;;;;70.00;49.00;;;;;-0.68;100.00;102935.56;5004222;28;45438;-86
2023/02/09 05:52:17;;;;;;;;;69.75;51.25;;;;;-0.67;100.00;102927.06;5020776;28;48116;-86
2023/02/09 05:54:42;;;;;;;;;65.75;49.75;;;;;-0.71;100.00;102931.16;5020294;28;45400;-87
2023/02/09 05:57:08;;;;;;;;;70.00;51.75;;;;;-0.75;100.00;102926.69;5020729;28;45390;-86
2023/02/09 05:59:34;;;;;;;;;71.00;48.50;;;;;-0.81;100.00;102922.13;5038778;28;45403;-86
2023/02/09 06:01:59;;;;;;;;;64.50;47.75;;;;;-0.81;100.00;102932.34;5020737;28;45329;-87
2023/02/09 06:04:25;;;;;;;;;64.75;41.75;;;;;-0.81;100.00;102939.16;5020759;28;45344;-86
2023/02/09 06:06:51;;;;;;;;;64.00;46.25;;;;;-0.80;100.00;102939.25;5004347;28;45547;-86
2023/02/09 06:09:17;;;;;;;;;66.75;48.50;;;;;-0.83;100.00;102939.06;5020711;28;45339;-86
2023/02/09 06:11:42;;;;;;;;;64.50;45.75;;;;;-0.84;100.00;102938.97;5020895;28;45488;-86
2023/02/09 06:14:08;;;;;;;;;53.75;45.00;;;;;-0.87;100.00;102944.81;5039379;28;45291;-90
2023/02/09 06:16:33;;;;;;;;;71.00;51.00;;;;;-0.86;100.00;102951.69;5021975;28;45279;-89
2023/02/09 06:18:59;;;;;;;;;53.25;48.25;;;;;-0.86;100.00;102959.34;5005635;28;45293;-91
2023/02/09 06:21:24;;;;;;;;;57.00;47.50;;;;;-0.87;100.00;102939.72;5038286;28;55841;-87
2023/02/09 06:23:49;;;;;;;;;64.00;47.25;;;;;-0.87;100.00;102956.72;5005216;28;45928;-90
2023/02/09 06:26:16;;;;;;;;;57.50;45.00;;;;;-0.87;100.00;102966.97;5022391;28;45457;-89
2023/02/09 06:28:42;;;;;;;;;60.00;45.25;;;;;-0.85;100.00;102956.00;5022804;28;45556;-89
2023/02/09 06:31:08;;;;;;;;;70.75;50.50;;;;;-0.85;100.00;102963.69;5004032;28;48268;-87
2023/02/09 06:33:35;;;;;;;;;64.00;49.50;;;;;-0.82;100.00;102975.72;5021380;28;45720;-89
2023/02/09 06:36:00;;;;;;;;;64.00;49.00;;;;;-0.83;100.00;102964.63;5005634;28;45358;-89
2023/02/09 06:38:26;;;;;;;;;77.00;51.25;;;;;-0.83;100.00;102968.88;5042917;28;45475;-94
2023/02/09 06:40:51;;;;;;;;;58.75;45.50;;;;;-0.86;100.00;102969.56;5007527;28;47162;-92
2023/02/09 06:43:17;;;;;;;;;78.00;49.50;;;;;-0.89;100.00;102964.31;5025193;28;45283;-96
2023/02/09 06:45:42;;;;;;;;;75.25;53.75;;;;;-0.90;100.00;102966.78;5011224;28;45328;-91
2023/02/09 06:48:08;;;;;;;;;68.50;50.50;;;;;-0.93;100.00;102981.94;5030236;28;45346;-92
2023/02/09 06:50:35;;;;;;;;;70.00;53.50;;;;;-0.93;100.00;102972.59;5024756;28;46892;-89
2023/02/09 06:53:03;;;;;;;;;74.00;57.00;;;;;-0.91;100.00;102982.91;5013925;28;45867;-91
2023/02/09 06:55:30;;;;;;;;;74.50;53.00;;;;;-0.93;100.00;102987.94;5032759;28;44752;-95
2023/02/09 06:57:56;;;;;;;;;69.25;50.50;;;;;-0.94;100.00;102987.88;5016005;28;45341;-94
2023/02/09 07:00:21;;;;;;;;;62.75;50.00;;;;;-0.97;100.00;102986.00;5029068;28;46268;-93
2023/02/09 07:02:47;;;;;;;;;68.25;54.00;;;;;-1.00;100.00;102984.19;5038175;28;45350;-92
2023/02/09 07:05:14;;;;;;;;;70.25;52.25;;;;;-1.04;100.00;102979.72;5025437;28;46983;-96
2023/02/09 07:07:39;;;;;;;;;67.00;52.00;;;;;-1.07;100.00;102978.66;5042557;28;46044;-95
2023/02/09 07:10:06;;;;;;;;;72.75;52.00;;;;;-1.08;100.00;102985.41;5003166;28;47505;-92
2023/02/09 07:12:32;;;;;;;;;64.50;52.00;;;;;-1.10;100.00;102978.47;5026652;28;45084;-96
2023/02/09 07:15:00;;;;;;;;;76.00;57.00;;;;;-1.10;100.00;102974.22;5045127;28;45344;-96
2023/02/09 07:17:59;;;;;;;;;73.50;54.25;;;;;-1.10;100.00;102975.91;5043705;28;45335;-96
2023/02/09 07:20:44;;;;;;;;;77.50;58.50;;;;;-1.11;100.00;102975.06;4992010;28;45421;-94
2023/02/09 07:23:10;;;;;;;;;79.00;55.00;;;;;-1.10;100.00;102973.38;4978997;28;49149;-95
2023/02/09 07:25:35;;;;;;;;;68.50;51.50;;;;;-1.10;100.00;102988.69;4990503;28;45448;-92
2023/02/09 07:28:00;;;;;;;;;72.75;52.50;;;;;-1.06;100.00;102999.19;4975261;28;59149;-91
2023/02/09 07:30:26;;;;;;;;;70.50;51.50;;;;;-1.02;100.00;103005.34;4975876;28;62628;-93
2023/02/09 07:32:51;;;;;;;;;78.00;55.75;;;;;-0.98;100.00;102997.91;4977628;28;66602;-90
2023/02/09 07:35:17;;;;;;;;;74.25;52.00;;;;;-0.94;100.00;103016.00;4974525;28;45433;-84
2023/02/09 07:37:42;;;;;;;;;75.00;54.50;;;;;-0.91;100.00;103008.47;4958790;28;64042;-84
2023/02/09 07:40:08;;;;;;;;;69.00;53.00;;;;;-0.84;100.00;103020.81;4948478;28;48028;-84
2023/02/09 07:42:33;;;;;;;;;71.50;52.50;;;;;-0.82;100.00;103017.56;4973833;28;45670;-84
2023/02/09 07:44:59;;;;;;;;;70.50;54.00;;;;;-0.79;100.00;103017.69;4958236;28;64263;-84
2023/02/09 07:47:24;;;;;;;;;70.00;48.75;;;;;-0.79;100.00;103019.38;4973148;28;63592;-84
2023/02/09 07:49:49;;;;;;;;;69.00;51.00;;;;;-0.76;100.00;103027.22;4951249;28;46055;-83
2023/02/09 07:52:15;;;;;;;;;71.50;59.00;;;;;-0.72;100.00;103030.84;5027705;28;45696;-85
2023/02/09 07:54:40;;;;;;;;;73.25;55.00;;;;;-0.66;100.00;103034.59;5019959;28;45522;-84
2023/02/09 07:57:05;;;;;;;;;78.75;58.75;;;;;-0.66;100.00;103026.91;5001279;28;45427;-84
2023/02/09 07:59:31;;;;;;;;;78.00;57.75;;;;;-0.60;100.00;103045.16;5002667;28;59959;-84
2023/02/09 08:01:57;;;;;;;;;80.25;59.75;;;;;-0.57;100.00;103052.13;5009899;28;56158;-84
2023/02/09 08:04:22;;;;;;;;;74.75;51.75;;;;;-0.52;100.00;103060.03;4998300;28;57426;-84
2023/02/09 08:06:48;;;;;;;;;92.75;67.00;;;;;-0.51;100.00;103060.13;5035884;28;45702;-84
2023/02/09 08:09:17;;;;;;;;;91.00;64.75;;;;;-0.47;100.00;103059.47;5008780;28;46256;-84
2023/02/09 08:11:54;;;;;;;;;80.75;61.00;;;;;-0.36;100.00;103066.88;5012890;28;45434;-85
2023/02/09 08:14:25;;;;;;;;;92.75;67.50;;;;;-0.30;100.00;103074.84;5017985;28;45446;-84
2023/02/09 08:17:18;;;;;;;;;93.00;66.75;;;;;-0.23;100.00;103076.94;5035764;28;45363;-83
2023/02/09 08:19:38;;;;;;;;;90.50;64.50;;;;;-0.17;100.00;103081.50;5035053;28;45342;-85
2023/02/09 08:22:03;;;;;;;;;92.50;66.00;;;;;-0.13;100.00;103079.22;5015369;28;45340;-85
2023/02/09 08:24:30;;;;;;;;;91.00;66.00;;;;;-0.09;100.00;103086.25;4992470;28;45503;-83
2023/02/09 08:26:56;;;;;;;;;94.25;67.00;;;;;-0.02;100.00;103095.13;5010072;28;45435;-85
2023/02/09 08:29:21;;;;;;;;;89.25;62.75;;;;;0.06;100.00;103100.66;5011755;28;63800;-85
2023/02/09 08:31:46;;;;;;;;;94.50;66.00;;;;;0.14;100.00;103104.50;4991185;28;65829;-85
2023/02/09 08:34:12;;;;;;;;;93.50;67.50;;;;;0.22;100.00;103103.19;4992911;28;45400;-85
2023/02/09 08:36:38;;;;;;;;;91.75;67.00;;;;;0.28;100.00;103100.97;5028444;28;46084;-83
2023/02/09 08:39:06;;;;;;;;;97.75;67.00;;;;;0.36;100.00;103103.91;5000006;28;47082;-85
2023/02/09 08:41:32;;;;;;;;;85.00;63.50;;;;;0.46;100.00;103110.38;5001817;28;45812;-85
2023/02/09 08:43:57;;;;;;;;;91.00;65.00;;;;;0.51;100.00;103109.81;4980166;28;45872;-84
2023/02/09 08:46:23;;;;;;;;;94.25;67.00;;;;;0.61;100.00;103113.72;4992979;28;55722;-85
2023/02/09 08:48:48;;;;;;;;;90.00;63.33;;;;;0.70;100.00;103118.41;4992122;28;70008;-85
2023/02/09 08:51:14;;;;;;;;;92.50;69.75;;;;;0.79;100.00;103113.75;5003358;28;45696;-84
2023/02/09 08:53:40;;;;;;;;;84.25;64.00;;;;;0.85;100.00;103119.16;5002020;28;45493;-84
2023/02/09 08:56:05;;;;;;;;;91.75;65.00;;;;;0.95;100.00;103120.53;5009142;28;45742;-85
2023/02/09 08:58:32;;;;;;;;;81.75;60.00;;;;;1.06;100.00;103118.47;4987803;28;46829;-85
2023/02/09 09:00:59;;;;;;;;;92.50;66.50;;;;;1.16;100.00;103124.13;5002491;28;45789;-86
2023/02/09 09:03:27;;;;;;;;;96.50;69.00;;;;;1.25;100.00;103123.69;5020242;28;45492;-85
2023/02/09 09:06:04;;;;;;;;;95.25;68.00;;;;;1.33;100.00;103124.03;5024721;28;45585;-85
2023/02/09 09:08:31;;;;;;;;;93.25;67.50;;;;;1.41;100.00;103137.22;5034686;28;46076;-84
2023/02/09 09:10:56;;;;;;;;;93.50;68.00;;;;;1.49;100.00;103143.63;5021569;28;45482;-84
2023/02/09 09:13:25;;;;;;;;;92.50;69.00;;;;;1.55;100.00;103141.34;5004527;28;45474;-85
2023/02/09 09:15:52;;;;;;;;;98.75;70.75;;;;;1.65;100.00;103140.06;5016611;28;45528;-85
2023/02/09 09:18:18;;;;;;;;;90.50;64.25;;;;;1.71;100.00;103143.81;5021992;28;47217;-85
2023/02/09 09:20:43;;;;;;;;;98.50;65.50;;;;;1.73;100.00;103134.50;5019912;28;45521;-85
2023/02/09 09:23:09;;;;;;;;;87.75;64.00;;;;;1.82;100.00;103138.28;5015570;28;45370;-85
2023/02/09 09:25:37;;;;;;;;;89.25;64.00;;;;;1.89;100.00;103143.75;5004601;28;60509;-84
2023/02/09 09:28:02;;;;;;;;;93.75;67.25;;;;;1.94;100.00;103120.88;4995263;28;48820;-85
2023/02/09 09:30:28;;;;;;;;;96.50;69.50;;;;;2.02;100.00;103121.19;5011566;28;51508;-84
2023/02/09 09:32:54;;;;;;;;;99.25;69.25;;;;;2.07;100.00;103136.00;4994915;28;45499;-83
2023/02/09 09:35:19;;;;;;;;;90.75;68.50;;;;;2.13;100.00;103132.84;5019950;28;45517;-85
2023/02/09 09:37:44;;;;;;;;;95.25;69.25;;;;;2.19;100.00;103133.13;4997002;28;63630;-84
2023/02/09 09:40:19;;;;;;;;;85.67;65.33;;;;;2.27;100.00;103115.47;5006892;28;61177;-85
2023/02/09 09:42:54;;;;;;;;;92.00;60.00;;;;;2.33;100.00;103118.28;4992588;28;45635;-85
2023/02/09 09:45:21;;;;;;;;;84.75;61.00;;;;;2.42;100.00;103122.97;5000834;28;46039;-85
2023/02/09 09:47:47;;;;;;;;;86.75;63.50;;;;;2.48;100.00;103128.34;5025351;28;46245;-84
2023/02/09 09:50:22;;;;;;;;;83.00;62.00;;;;;2.55;100.00;103130.38;5013421;28;45816;-85
2023/02/09 09:52:55;;;;;;;;;83.00;59.50;;;;;2.62;100.00;103123.78;4992502;28;45553;-84
2023/02/09 09:55:26;;;;;;;;;70.50;52.50;;;;;2.71;100.00;103121.59;5001203;28;45620;-84
2023/02/09 09:57:53;;;;;;;;;80.75;55.25;;;;;2.79;100.00;103124.50;5007345;28;46557;-84
2023/02/09 10:00:23;;;;;;;;;67.75;52.50;;;;;2.86;100.00;103122.25;5010116;28;45552;-84
2023/02/09 10:02:49;;;;;;;;;72.50;52.00;;;;;2.92;100.00;103121.63;5012214;28;45525;-83
2023/02/09 10:05:18;;;;;;;;;78.75;56.00;;;;;3.01;100.00;103131.41;5001768;28;53043;-84
2023/02/09 10:07:58;;;;;;;;;71.25;49.50;;;;;3.08;100.00;103133.41;5012639;28;47165;-84
2023/02/09 10:10:33;;;;;;;;;62.25;47.75;;;;;3.17;100.00;103136.34;5013717;28;45971;-84
2023/02/09 10:13:00;;;;;;;;;45.75;42.75;;;;;3.25;100.00;103142.69;5029428;28;45581;-82
2023/02/09 10:15:31;;;;;;;;;66.25;45.25;;;;;3.35;100.00;103138.78;5006533;28;64091;-83
2023/02/09 10:17:57;;;;;;;;;54.50;40.00;;;;;3.43;100.00;103141.66;4996650;28;47213;-83
2023/02/09 10:20:51;;;;;;;;;61.25;47.00;;;;;3.51;100.00;103148.00;5009982;28;45953;-83
2023/02/09 10:23:19;;;;;;;;;67.50;47.50;;;;;3.61;100.00;103142.38;5004435;28;45822;-83
2023/02/09 10:26:08;;;;;;;;;55.00;40.75;;;;;3.73;100.00;103133.34;5012279;28;45889;-83
2023/02/09 10:28:42;;;;;;;;;50.00;35.00;;;;;3.83;100.00;103125.16;5012589;28;46617;-81
2023/02/09 10:31:11;;;;;;;;;51.25;42.00;;;;;3.96;100.00;103127.38;5009785;28;45990;-84
2023/02/09 10:33:41;;;;;;;;;49.00;38.00;;;;;4.05;100.00;103125.13;5006218;28;45628;-83
2023/02/09 10:36:21;;;;;;;;;48.25;39.00;;;;;4.14;99.28;103109.13;5035990;28;45442;-84
2023/02/09 10:38:47;;;;;;;;;52.50;37.00;;;;;4.24;99.61;103120.63;4994806;28;48194;-84
2023/02/09 10:41:13;;;;;;;;;45.00;31.00;;;;;4.40;100.00;103129.75;5015476;28;45863;-84
2023/02/09 10:43:39;;;;;;;;;45.25;32.75;;;;;4.54;100.00;103130.25;5010127;28;60961;-84
2023/02/09 10:46:17;;;;;;;;;44.75;31.50;;;;;4.68;98.62;103121.28;5003996;28;45555;-84
2023/02/09 10:48:44;;;;;;;;;56.50;44.00;;;;;4.79;97.44;103114.78;5019411;28;46729;-84
2023/02/09 10:51:27;;;;;;;;;55.00;37.75;;;;;4.93;98.43;103109.19;5035986;28;45402;-85
2023/02/09 10:54:18;;;;;;;;;57.25;40.75;;;;;5.08;97.72;103106.22;5017689;28;45237;-84
2023/02/09 10:56:46;;;;;;;;;51.50;37.50;;;;;5.24;98.46;103104.16;5026899;28;45504;-83
2023/02/09 10:59:17;;;;;;;;;38.50;34.75;;;;;5.43;96.77;103108.19;5026667;28;45469;-84
2023/02/09 11:01:48;;;;;;;;;40.25;31.50;;;;;5.61;97.36;103120.78;5021169;28;45906;-84
2023/02/09 11:04:22;;;;;;;;;42.00;28.50;;;;;5.78;95.88;103110.94;5011315;28;45608;-84
2023/02/09 11:06:54;;;;;;;;;47.25;37.75;;;;;5.89;91.46;103120.69;5015688;28;45853;-85
2023/02/09 11:09:26;;;;;;;;;38.25;31.75;;;;;6.00;91.86;103115.06;4998433;28;45498;-85
2023/02/09 11:11:52;;;;;;;;;45.75;33.75;;;;;6.18;95.10;103100.88;5036313;28;46002;-84
2023/02/09 11:14:18;;;;;;;;;51.00;32.00;;;;;6.38;90.64;103085.88;5005831;28;45523;-84
2023/02/09 11:17:12;;;;;;;;;48.25;35.50;;;;;6.61;90.93;103085.59;4995642;28;45783;-83